CheckWX is a tool to help pilots better visualize weather data.  It is not intended as a substitute for an official pre-flight weather briefing.

05:08:17 UTC

KSMO METAR
Santa Monica Municipal Airport
Santa Monica, California, USA
Current

17 mins ago

KSMO 170451Z AUTO 00000KT 10SM FEW011 20/18 A2989 RMK AO2 SLP121 T02000178
Observed
Sep-17 @ 04:51 UTC
Visibility
10 SM
Flight Rules
VFR
Cloud Levels
  • Few at 1,100' AGL
Temperature
20°C / 68°F
Dewpoint
18°C / 64°F
Humidity
88%
Altimeter
29.89" Hg
Pressure
1012.22 hPa
Previous

31 mins ago

KSMO 170437Z AUTO 00000KT 10SM FEW011 20/18 A2989 RMK AO2 T02000178
Observed
Sep-17 @ 04:37 UTC
Visibility
10 SM
Flight Rules
VFR
Cloud Levels
  • Few at 1,100' AGL
Temperature
20°C / 68°F
Dewpoint
18°C / 64°F
Humidity
88%
Altimeter
29.89" Hg
Pressure
1012.22 hPa
Previous

1 hour ago

KSMO 170351Z AUTO 24003KT 10SM BKN010 20/18 A2989 RMK AO2 SLP119 T02000178
Observed
Sep-17 @ 03:51 UTC
Wind
  • 240° at 3 KTS
Visibility
10 SM
Flight Rules
MVFR
Cloud Levels
  • Broken at 1,000' AGL
Temperature
20°C / 68°F
Dewpoint
18°C / 64°F
Humidity
88%
Altimeter
29.89" Hg
Pressure
1012.22 hPa